• Join FlightAware (Why Join?)
  • Login
  • US Flag 
09:27PM EDT


 

Airport Tracker/Info


-or-


 

Live Flight TrackerFlight Track Log ✈ KAP927 ✈ 24-May-2013 ✈ KALB - KOGS

Flight Track Log - Related Links

Times and Time Zones

All times are in EDT time to prevent confusion due to time zone crossing. See the KAP927 flight status page for this flight to view local times or setup timezone preferences in your user account.

Time Position Orientation Groundspeed Altitude Reporting Facility
EDT Latitude Longitude Course Direction KTS MPH feet Rate Location/Type
03:20PM 42.7736 -73.8064 352° North 111 128 1,300  Level Boston Center
03:21PM 42.8006 -73.8267 331° Northwest 102 117 2,000 660 Climbing Boston Center
03:22PM 42.8272 -73.8528 324° Northwest 109 125 2,700 720 Climbing Boston Center
03:23PM 42.8561 -73.8733 332° Northwest 110 127 3,600 660 Climbing Boston Center
03:24PM 42.8872 -73.8967 331° Northwest 119 137 4,200 540 Climbing Boston Center
03:25PM 42.9119 -73.9169 329° Northwest 124 143 4,700 540 Climbing Boston Center
03:26PM 42.9406 -73.9461 323° Northwest 122 140 5,200 540 Climbing Boston Center
03:27PM 42.9675 -73.9667 331° Northwest 119 137 5,800 540 Climbing Boston Center
03:28PM 42.9922 -73.9872 329° Northwest 127 146 6,300 540 Climbing Boston Center
03:29PM 43.0253 -74.0106 333° Northwest 127 146 6,900 480 Climbing Boston Center
03:30PM 43.0542 -74.0342 329° Northwest 132 152 7,300 480 Climbing Boston Center
03:31PM 43.0869 -74.0661 325° Northwest 132 152 7,900 480 Climbing Boston Center
03:32PM 43.1178 -74.0897 331° Northwest 126 145 8,300 420 Climbing Boston Center
03:33PM 43.1528 -74.1222 326° Northwest 126 145 8,800 420 Climbing Boston Center
03:34PM 43.1817 -74.1456 330° Northwest 126 145 9,200 420 Climbing Boston Center
03:35PM 43.2208 -74.1781 329° Northwest 132 152 9,700 360 Climbing Boston Center
03:36PM 43.2536 -74.2047 329° Northwest 144 166 10,000 120 Climbing Boston Center
03:37PM 43.2947 -74.2431 326° Northwest 154 177 10,000  Level Boston Center
03:38PM 43.3319 -74.2725 330° Northwest 172 198 10,000  Level Boston Center
03:39PM 43.3772 -74.3111 328° Northwest 172 198 10,000  Level Boston Center
03:40PM 43.4142 -74.3436 327° Northwest 172 198 10,000  Level Boston Center
03:41PM 43.4531 -74.3792 326° Northwest 166 191 10,000  Level Boston Center
03:42PM 43.4922 -74.4119 329° Northwest 166 191 10,000  Level Boston Center
03:43PM 43.5311 -74.4447 329° Northwest 166 191 10,000  Level Boston Center
03:44PM 43.5783 -74.4864 327° Northwest 166 191 10,000  Level Boston Center
03:45PM 43.6153 -74.5192 327° Northwest 166 191 10,000  Level Boston Center
03:46PM 43.6542 -74.5522 328° Northwest 166 191 10,000  Level Boston Center
03:47PM 43.6933 -74.5850 329° Northwest 166 191 10,000  Level Boston Center
03:48PM 43.7300 -74.6181 327° Northwest 166 191 10,000  Level Boston Center
03:49PM 43.7669 -74.6508 327° Northwest 166 191 10,000  Level Boston Center
03:50PM 43.8061 -74.6842 328° Northwest 166 191 10,000  Level Boston Center
03:51PM 43.8450 -74.7172 328° Northwest 166 191 10,000  Level Boston Center
03:52PM 43.8839 -74.7503 329° Northwest 166 191 10,000  Level Boston Center
03:53PM 43.9289 -74.7925 326° Northwest 166 191 10,000 -360 Level Boston Center
03:54PM 43.9697 -74.8286 328° Northwest 166 191 9,400 -600 Descending Boston Center
03:55PM 44.0169 -74.8653 331° Northwest 172 198 8,900 -600 Descending Boston Center
03:56PM 44.0578 -74.9072 324° Northwest 177 204 8,300 -660 Descending Boston Center
03:57PM 44.1050 -74.9439 331° Northwest 182 209 7,600 -780 Descending Boston Center
03:58PM 44.1436 -74.9803 326° Northwest 176 203 6,800 -780 Descending Boston Center
03:59PM 44.1867 -75.0169 329° Northwest 176 203 6,100 -600 Descending Boston Center
04:00PM 44.2275 -75.0506 329° Northwest 176 203 5,700 -480 Descending Boston Center
04:01PM 44.2664 -75.0869 326° Northwest 169 194 5,200 -360 Descending Boston Center
04:02PM 44.3031 -75.1206 327° Northwest 163 188 5,100 -60 Descending Boston Center
04:03PM 44.3356 -75.1539 324° Northwest 158 182 5,100  Level Boston Center
04:04PM 44.3703 -75.1817 330° Northwest 152 175 5,100  Level Boston Center
04:05PM 44.4031 -75.2122 326° Northwest 145 167 5,100  Level Boston Center
04:06PM 44.4358 -75.2372 331° Northwest 145 167 5,100 -60 Level Boston Center
04:07PM 44.4703 -75.2678 328° Northwest 145 167 5,000 -600 Descending Boston Center
04:08PM 44.5092 -75.3047 326° Northwest 150 173 3,900 -1,140 Descending Boston Center